Time;durP1;ratioP1;P1;durP2;ratioP2;P2;SDS_P1;SDS_P2;PMS_P1;PMS_P2;Temp;Humidity;BMP_temperature;BMP_pressure;BME280_temperature;BME280_humidity;BME280_pressure;Samples;Min_cycle;Max_cycle;Signal;HPM_P1;HPM_P2
2023/05/13 00:01:29;;;;;;;;;;;12.80;99.90;;;;;;5027854;28;19928;-66
2023/05/13 00:03:55;;;;;;;;;;;12.80;99.90;;;;;;5029453;28;19925;-67
2023/05/13 00:06:20;;;;;;;;;;;12.70;99.90;;;;;;5012861;28;20350;-67
2023/05/13 00:08:46;;;;;;;;;;;12.70;99.90;;;;;;5011253;28;19928;-67
2023/05/13 00:11:11;;;;;;;;;;;12.60;99.90;;;;;;5023955;28;20004;-67
2023/05/13 00:13:37;;;;;;;;;;;12.70;99.90;;;;;;5032072;28;19921;-67
2023/05/13 00:16:02;;;;;;;;;;;12.60;99.90;;;;;;5025606;28;19971;-67
2023/05/13 00:18:28;;;;;;;;;;;12.50;99.90;;;;;;5024236;28;20039;-68
2023/05/13 00:20:55;;;;;;;;;;;12.50;99.90;;;;;;5031831;28;20036;-68
2023/05/13 00:23:20;;;;;;;;;;;12.50;99.90;;;;;;5032428;28;19929;-68
2023/05/13 00:25:46;;;;;;;;;;;12.40;99.90;;;;;;5022640;28;19982;-68
2023/05/13 00:28:13;;;;;;;;;;;12.40;99.90;;;;;;5029957;28;20016;-67
2023/05/13 00:30:44;;;;;;;;;;;12.40;99.90;;;;;;5031552;28;19974;-67
2023/05/13 00:33:10;;;;;;;;;;;12.30;99.90;;;;;;5019652;28;19926;-67
2023/05/13 00:35:35;;;;;;;;;;;12.30;99.90;;;;;;5023378;28;20394;-67
2023/05/13 00:38:00;;;;;;;;;;;12.30;99.90;;;;;;5031492;28;19963;-68
2023/05/13 00:40:26;;;;;;;;;;;12.20;99.90;;;;;;5030727;28;20538;-67
2023/05/13 00:42:52;;;;;;;;;;;12.20;99.90;;;;;;5020015;28;19961;-67
2023/05/13 00:45:18;;;;;;;;;;;12.20;99.90;;;;;;5025974;28;19925;-67
2023/05/13 00:47:44;;;;;;;;;;;12.20;99.90;;;;;;5031864;28;19929;-67
2023/05/13 00:50:10;;;;;;;;;;;12.10;99.90;;;;;;5019294;28;19929;-66
2023/05/13 00:52:37;;;;;;;;;;;12.10;99.90;;;;;;5031295;28;19921;-66
2023/05/13 00:55:03;;;;;;;;;;;12.10;99.90;;;;;;5031596;28;19921;-67
2023/05/13 00:57:28;;;;;;;;;;;12.00;99.90;;;;;;5032439;28;19928;-67
2023/05/13 00:59:54;;;;;;;;;;;12.00;99.90;;;;;;5017248;28;19927;-67
2023/05/13 01:02:25;;;;;;;;;;;12.00;99.90;;;;;;5029502;28;19972;-67
2023/05/13 01:04:53;;;;;;;;;;;12.00;99.90;;;;;;5034362;28;20383;-67
2023/05/13 01:07:27;;;;;;;;;;;12.00;99.90;;;;;;5023149;28;20463;-67
2023/05/13 01:10:02;;;;;;;;;;;11.90;99.90;;;;;;5035032;28;19932;-67
2023/05/13 01:12:35;;;;;;;;;;;11.80;99.90;;;;;;5035364;28;19928;-67
2023/05/13 01:15:03;;;;;;;;;;;11.80;99.90;;;;;;5025126;28;19921;-67
2023/05/13 01:17:49;;;;;;;;;;;11.80;99.90;;;;;;5028942;28;19933;-66
2023/05/13 01:20:17;;;;;;;;;;;11.70;99.90;;;;;;5023483;28;19926;-67
2023/05/13 01:22:42;;;;;;;;;;;11.70;99.90;;;;;;5026699;28;19937;-66
2023/05/13 01:25:08;;;;;;;;;;;11.60;99.90;;;;;;5023927;28;19928;-67
2023/05/13 01:27:33;;;;;;;;;;;11.60;99.90;;;;;;5035130;28;19928;-67
2023/05/13 01:29:59;;;;;;;;;;;11.50;99.90;;;;;;5033656;28;19995;-67
2023/05/13 01:32:25;;;;;;;;;;;11.60;99.90;;;;;;5025793;28;19921;-67
2023/05/13 01:34:51;;;;;;;;;;;11.50;99.90;;;;;;5029804;28;19922;-66
2023/05/13 01:37:17;;;;;;;;;;;11.50;99.90;;;;;;5034481;28;19921;-67
2023/05/13 01:39:42;;;;;;;;;;;11.50;99.90;;;;;;5024052;28;20015;-67
2023/05/13 01:42:08;;;;;;;;;;;11.40;99.90;;;;;;5026270;28;19968;-67
2023/05/13 01:44:33;;;;;;;;;;;11.40;99.90;;;;;;5042376;28;19920;-67
2023/05/13 01:46:59;;;;;;;;;;;11.40;99.90;;;;;;5053653;28;19924;-66
2023/05/13 01:49:25;;;;;;;;;;;11.30;99.90;;;;;;5030817;28;19929;-67
2023/05/13 01:51:50;;;;;;;;;;;11.20;99.90;;;;;;5033103;28;20287;-67
2023/05/13 01:54:16;;;;;;;;;;;11.20;99.90;;;;;;5033875;28;20295;-66
2023/05/13 01:56:41;;;;;;;;;;;11.10;99.90;;;;;;5024044;28;19928;-67
2023/05/13 01:59:08;;;;;;;;;;;11.10;99.90;;;;;;5031202;28;20383;-67
2023/05/13 02:01:33;;;;;;;;;;;11.00;99.90;;;;;;5033665;28;20383;-67
2023/05/13 02:03:59;;;;;;;;;;;10.90;99.90;;;;;;5034597;28;19978;-67
2023/05/13 02:06:25;;;;;;;;;;;10.80;99.90;;;;;;5026307;28;19921;-67
2023/05/13 02:08:50;;;;;;;;;;;10.90;99.90;;;;;;5032172;28;20020;-67
2023/05/13 02:11:16;;;;;;;;;;;10.80;99.90;;;;;;5034448;28;20012;-66
2023/05/13 02:13:41;;;;;;;;;;;10.80;99.90;;;;;;5021037;28;20068;-67
2023/05/13 02:16:07;;;;;;;;;;;10.80;99.90;;;;;;5028349;28;19921;-67
2023/05/13 02:18:32;;;;;;;;;;;10.80;99.90;;;;;;5034098;28;20299;-67
2023/05/13 02:20:58;;;;;;;;;;;10.70;99.90;;;;;;5022599;28;19928;-67
2023/05/13 02:23:23;;;;;;;;;;;10.70;99.90;;;;;;5024190;28;20346;-67
2023/05/13 02:25:49;;;;;;;;;;;10.60;99.90;;;;;;5031437;28;19925;-67
2023/05/13 02:28:14;;;;;;;;;;;10.70;99.90;;;;;;5031767;28;19921;-66
2023/05/13 02:30:40;;;;;;;;;;;10.70;99.90;;;;;;5018296;28;19929;-68
2023/05/13 02:33:06;;;;;;;;;;;10.70;99.90;;;;;;5032705;28;20011;-67
2023/05/13 02:35:31;;;;;;;;;;;10.60;99.90;;;;;;5046841;28;20399;-67
2023/05/13 02:37:57;;;;;;;;;;;10.60;99.90;;;;;;5033589;28;19981;-66
2023/05/13 02:40:22;;;;;;;;;;;10.70;99.90;;;;;;5019265;28;20659;-66
2023/05/13 02:42:48;;;;;;;;;;;10.60;99.90;;;;;;5032295;28;19967;-67
2023/05/13 02:45:14;;;;;;;;;;;10.60;99.90;;;;;;5029781;28;19921;-67
2023/05/13 02:47:39;;;;;;;;;;;10.60;99.90;;;;;;5020388;28;20460;-66
2023/05/13 02:50:06;;;;;;;;;;;10.50;99.90;;;;;;5031970;28;19932;-66
2023/05/13 02:52:34;;;;;;;;;;;10.50;99.90;;;;;;5033721;28;19928;-68
2023/05/13 02:55:00;;;;;;;;;;;10.50;99.90;;;;;;5022950;28;19925;-67
2023/05/13 02:57:26;;;;;;;;;;;10.50;99.90;;;;;;5032479;28;19928;-67
2023/05/13 02:59:52;;;;;;;;;;;10.50;99.90;;;;;;5032118;28;19921;-66
2023/05/13 03:02:17;;;;;;;;;;;10.50;99.90;;;;;;5025938;28;19925;-67
2023/05/13 03:04:43;;;;;;;;;;;10.50;99.90;;;;;;5018626;28;19921;-67
2023/05/13 03:07:08;;;;;;;;;;;10.40;99.90;;;;;;5032761;28;19921;-67
2023/05/13 03:09:37;;;;;;;;;;;10.40;99.90;;;;;;5031946;28;19932;-67
2023/05/13 03:12:04;;;;;;;;;;;10.40;99.90;;;;;;5021737;28;19960;-67
2023/05/13 03:14:30;;;;;;;;;;;10.30;99.90;;;;;;5032872;28;19978;-66
2023/05/13 03:16:55;;;;;;;;;;;10.30;99.90;;;;;;5026269;28;20008;-67
2023/05/13 03:19:21;;;;;;;;;;;10.30;99.90;;;;;;5016139;28;20055;-67
2023/05/13 03:21:46;;;;;;;;;;;10.30;99.90;;;;;;5029696;28;20379;-67
2023/05/13 03:24:12;;;;;;;;;;;10.30;99.90;;;;;;5037436;28;19921;-66
2023/05/13 03:26:37;;;;;;;;;;;10.20;99.90;;;;;;5029066;28;19927;-67
2023/05/13 03:29:03;;;;;;;;;;;10.20;99.90;;;;;;5021855;28;19921;-67
2023/05/13 03:31:28;;;;;;;;;;;10.20;99.90;;;;;;5032848;28;19961;-66
2023/05/13 03:33:54;;;;;;;;;;;10.20;99.90;;;;;;5027841;28;19929;-67
2023/05/13 03:36:19;;;;;;;;;;;10.10;99.90;;;;;;5018603;28;19976;-67
2023/05/13 03:38:45;;;;;;;;;;;10.10;99.90;;;;;;5028317;28;19921;-67
2023/05/13 03:41:10;;;;;;;;;;;10.10;99.90;;;;;;5030736;28;19921;-68
2023/05/13 03:43:36;;;;;;;;;;;10.10;99.90;;;;;;5026470;28;19921;-67
2023/05/13 03:46:01;;;;;;;;;;;10.10;99.90;;;;;;5020620;28;19925;-67
2023/05/13 03:48:27;;;;;;;;;;;10.00;99.90;;;;;;5028578;28;19921;-66
2023/05/13 03:50:52;;;;;;;;;;;10.00;99.90;;;;;;5030875;28;19929;-67
2023/05/13 03:53:18;;;;;;;;;;;10.10;99.90;;;;;;5024303;28;19925;-66
2023/05/13 03:55:44;;;;;;;;;;;10.00;99.90;;;;;;5025830;28;19921;-67
2023/05/13 03:58:14;;;;;;;;;;;10.00;99.90;;;;;;5031009;28;19925;-67
2023/05/13 04:00:40;;;;;;;;;;;10.10;99.90;;;;;;5032500;28;19921;-66
2023/05/13 04:03:06;;;;;;;;;;;10.00;99.90;;;;;;5018581;28;19943;-65
2023/05/13 04:05:31;;;;;;;;;;;10.00;99.90;;;;;;5023824;28;20331;-67
2023/05/13 04:07:56;;;;;;;;;;;10.10;99.90;;;;;;5032230;28;19944;-67
2023/05/13 04:10:22;;;;;;;;;;;10.10;99.90;;;;;;5020508;28;19925;-67
2023/05/13 04:12:47;;;;;;;;;;;10.00;99.90;;;;;;5023738;28;19928;-66
2023/05/13 04:15:13;;;;;;;;;;;10.10;99.90;;;;;;5032072;28;19964;-67
2023/05/13 04:17:38;;;;;;;;;;;10.00;99.90;;;;;;5032042;28;20023;-67
2023/05/13 04:20:04;;;;;;;;;;;10.10;99.90;;;;;;5017163;28;19983;-67
2023/05/13 04:22:30;;;;;;;;;;;10.10;99.90;;;;;;5014913;28;20316;-66
2023/05/13 04:24:56;;;;;;;;;;;10.10;99.90;;;;;;5014655;28;20326;-67
2023/05/13 04:27:24;;;;;;;;;;;10.10;99.90;;;;;;5008039;28;19921;-67
2023/05/13 04:29:49;;;;;;;;;;;10.20;99.90;;;;;;5010818;28;19933;-66
2023/05/13 04:32:20;;;;;;;;;;;10.20;99.90;;;;;;5013693;28;20399;-66
2023/05/13 04:34:46;;;;;;;;;;;10.20;99.90;;;;;;5013138;28;20590;-67
2023/05/13 04:37:11;;;;;;;;;;;10.30;99.90;;;;;;5013954;28;19921;-67
2023/05/13 04:39:37;;;;;;;;;;;10.30;99.90;;;;;;5007990;28;19926;-66
2023/05/13 04:42:02;;;;;;;;;;;10.30;99.90;;;;;;5006039;28;19929;-65
2023/05/13 04:44:28;;;;;;;;;;;10.30;99.90;;;;;;5011339;28;20399;-66
2023/05/13 04:46:54;;;;;;;;;;;10.40;99.90;;;;;;5011796;28;20461;-66
2023/05/13 04:49:19;;;;;;;;;;;10.40;99.90;;;;;;5011443;28;20340;-67
2023/05/13 04:51:45;;;;;;;;;;;10.50;99.90;;;;;;5009396;28;19932;-66
2023/05/13 04:54:10;;;;;;;;;;;10.50;99.90;;;;;;5009220;28;19925;-65
2023/05/13 04:56:36;;;;;;;;;;;10.60;99.90;;;;;;5013001;28;19930;-65
2023/05/13 04:59:01;;;;;;;;;;;10.60;99.90;;;;;;5007011;28;20466;-67
2023/05/13 05:01:27;;;;;;;;;;;10.70;99.90;;;;;;5011157;28;19959;-67
2023/05/13 05:03:52;;;;;;;;;;;10.80;99.90;;;;;;5006019;28;19940;-67
2023/05/13 05:06:18;;;;;;;;;;;10.80;99.90;;;;;;5004836;28;19929;-67
2023/05/13 05:08:44;;;;;;;;;;;10.90;99.90;;;;;;5004530;28;19937;-66
2023/05/13 05:11:10;;;;;;;;;;;10.90;99.90;;;;;;5005962;28;20400;-64
2023/05/13 05:13:35;;;;;;;;;;;11.00;99.90;;;;;;5008653;28;19921;-66
2023/05/13 05:16:01;;;;;;;;;;;11.10;99.90;;;;;;5000951;28;19928;-65
2023/05/13 05:18:26;;;;;;;;;;;11.10;99.90;;;;;;5007394;28;19972;-64
2023/05/13 05:20:51;;;;;;;;;;;11.20;99.90;;;;;;5012370;28;20406;-67
2023/05/13 05:23:17;;;;;;;;;;;11.30;99.90;;;;;;5012789;28;19987;-67
2023/05/13 05:25:42;;;;;;;;;;;11.40;99.90;;;;;;5012225;28;20610;-66
2023/05/13 05:28:08;;;;;;;;;;;11.40;99.90;;;;;;5008918;28;19989;-65
2023/05/13 05:30:38;;;;;;;;;;;11.50;99.90;;;;;;5009678;28;19929;-63
2023/05/13 05:33:05;;;;;;;;;;;11.60;99.90;;;;;;5009466;28;19925;-66
2023/05/13 05:35:30;;;;;;;;;;;11.60;99.90;;;;;;5006567;28;19929;-66
2023/05/13 05:37:56;;;;;;;;;;;11.60;99.90;;;;;;5008820;28;19925;-67
2023/05/13 05:40:21;;;;;;;;;;;11.60;99.90;;;;;;5008425;28;19932;-67
2023/05/13 05:42:47;;;;;;;;;;;11.70;99.90;;;;;;5003017;28;19929;-65
2023/05/13 05:45:12;;;;;;;;;;;11.80;99.90;;;;;;5011247;28;20563;-65
2023/05/13 05:47:38;;;;;;;;;;;11.90;99.90;;;;;;5019403;28;19925;-67
2023/05/13 05:50:03;;;;;;;;;;;12.00;99.90;;;;;;5014129;28;19930;-67
2023/05/13 05:52:29;;;;;;;;;;;12.00;99.90;;;;;;5012828;28;19925;-67
2023/05/13 05:54:54;;;;;;;;;;;12.10;99.90;;;;;;5023379;28;19921;-66
2023/05/13 05:57:20;;;;;;;;;;;12.20;99.90;;;;;;5007268;28;19934;-66
2023/05/13 05:59:45;;;;;;;;;;;12.20;99.90;;;;;;5003701;28;19922;-67
2023/05/13 06:02:11;;;;;;;;;;;12.20;99.90;;;;;;5021376;28;19932;-64
2023/05/13 06:04:37;;;;;;;;;;;12.40;99.90;;;;;;5035916;22;20051;-68
2023/05/13 06:07:02;;;;;;;;;;;12.60;99.90;;;;;;5044239;28;20023;-68
2023/05/13 06:09:28;;;;;;;;;;;12.70;99.90;;;;;;5044853;28;19936;-67
2023/05/13 06:11:53;;;;;;;;;;;12.80;99.90;;;;;;5028414;28;19929;-65
2023/05/13 06:14:19;;;;;;;;;;;13.00;99.90;;;;;;5023228;28;19968;-66
2023/05/13 06:16:45;;;;;;;;;;;13.00;99.90;;;;;;5042623;28;20276;-66
2023/05/13 06:19:10;;;;;;;;;;;13.10;99.90;;;;;;5038874;28;19927;-65
2023/05/13 06:21:36;;;;;;;;;;;13.20;99.90;;;;;;5032251;28;19921;-65
2023/05/13 06:24:02;;;;;;;;;;;13.30;99.90;;;;;;5034898;28;19924;-69
2023/05/13 06:26:28;;;;;;;;;;;13.40;99.90;;;;;;5036155;28;20063;-65
2023/05/13 06:28:54;;;;;;;;;;;13.50;99.90;;;;;;5036650;28;19925;-66
2023/05/13 06:31:19;;;;;;;;;;;13.50;99.90;;;;;;5024190;28;19932;-65
2023/05/13 06:33:45;;;;;;;;;;;13.60;99.90;;;;;;5028916;28;19925;-66
2023/05/13 06:36:10;;;;;;;;;;;13.60;99.90;;;;;;5041430;28;20021;-68
2023/05/13 06:38:36;;;;;;;;;;;13.70;99.90;;;;;;5032614;28;19922;-67
2023/05/13 06:41:01;;;;;;;;;;;13.80;99.90;;;;;;5033479;28;20018;-65
2023/05/13 06:43:27;;;;;;;;;;;13.80;99.90;;;;;;5034192;28;19932;-67
2023/05/13 06:45:52;;;;;;;;;;;13.90;99.90;;;;;;5043766;28;19928;-66
2023/05/13 06:48:17;;;;;;;;;;;14.00;99.90;;;;;;5053422;28;19932;-65
2023/05/13 06:50:43;;;;;;;;;;;14.10;99.90;;;;;;5053798;28;19920;-66
2023/05/13 06:53:10;;;;;;;;;;;14.10;99.90;;;;;;5037542;28;19925;-65
2023/05/13 06:55:40;;;;;;;;;;;14.20;99.90;;;;;;5046740;28;20402;-66
2023/05/13 06:58:07;;;;;;;;;;;14.20;99.90;;;;;;5037425;28;19962;-65
2023/05/13 07:00:35;;;;;;;;;;;14.20;99.90;;;;;;5053053;28;20025;-65
2023/05/13 07:03:02;;;;;;;;;;;14.20;99.90;;;;;;5052437;28;19964;-66
2023/05/13 07:05:27;;;;;;;;;;;14.30;99.90;;;;;;5039297;28;19961;-67
2023/05/13 07:07:53;;;;;;;;;;;14.30;99.90;;;;;;5049987;28;19920;-67
2023/05/13 07:10:18;;;;;;;;;;;14.40;99.90;;;;;;5051863;28;19924;-65
2023/05/13 07:12:44;;;;;;;;;;;14.40;99.90;;;;;;5045195;28;19925;-66
2023/05/13 07:15:10;;;;;;;;;;;14.40;99.90;;;;;;5034713;28;19931;-66
2023/05/13 07:17:35;;;;;;;;;;;14.50;99.90;;;;;;5036218;28;19947;-66
2023/05/13 07:20:01;;;;;;;;;;;14.60;99.90;;;;;;5052860;28;19925;-66
2023/05/13 07:22:27;;;;;;;;;;;14.70;99.90;;;;;;5052883;28;20294;-64
2023/05/13 07:24:53;;;;;;;;;;;14.80;99.90;;;;;;5045903;28;20331;-66
2023/05/13 07:27:19;;;;;;;;;;;14.80;99.90;;;;;;5047349;28;19925;-67
2023/05/13 07:29:45;;;;;;;;;;;14.90;99.90;;;;;;5047878;28;19931;-66
2023/05/13 07:32:10;;;;;;;;;;;15.00;99.90;;;;;;5040098;28;19972;-67
2023/05/13 07:34:36;;;;;;;;;;;15.10;99.90;;;;;;5045812;28;19921;-67
2023/05/13 07:37:02;;;;;;;;;;;15.20;99.90;;;;;;5045816;28;19921;-66
2023/05/13 07:39:28;;;;;;;;;;;15.30;99.90;;;;;;5039514;28;19925;-66
2023/05/13 07:41:53;;;;;;;;;;;15.30;99.90;;;;;;5045522;28;19921;-67
2023/05/13 07:44:19;;;;;;;;;;;15.40;99.90;;;;;;5046807;28;20664;-67
2023/05/13 07:46:45;;;;;;;;;;;15.50;99.90;;;;;;5036587;28;19928;-66
2023/05/13 07:49:10;;;;;;;;;;;15.60;99.90;;;;;;5046769;28;20295;-67
2023/05/13 07:51:36;;;;;;;;;;;15.60;99.90;;;;;;5046842;28;20469;-67
2023/05/13 07:54:01;;;;;;;;;;;15.70;99.90;;;;;;5043964;28;20845;-67
2023/05/13 07:56:27;;;;;;;;;;;15.80;99.90;;;;;;5050167;28;20124;-66
2023/05/13 07:58:52;;;;;;;;;;;15.80;99.90;;;;;;5050062;28;19924;-66
2023/05/13 08:01:18;;;;;;;;;;;15.90;99.90;;;;;;5052109;28;19925;-67
2023/05/13 08:03:44;;;;;;;;;;;16.00;99.90;;;;;;5040934;28;19921;-67
2023/05/13 08:06:10;;;;;;;;;;;16.10;99.90;;;;;;5034450;28;19928;-66
2023/05/13 08:08:35;;;;;;;;;;;16.10;99.90;;;;;;5047476;28;19920;-66
2023/05/13 08:11:01;;;;;;;;;;;16.20;99.90;;;;;;5034802;28;19928;-66
2023/05/13 08:13:26;;;;;;;;;;;16.40;99.90;;;;;;5029292;28;19929;-68
2023/05/13 08:15:52;;;;;;;;;;;16.40;99.90;;;;;;5034877;28;19928;-68
2023/05/13 08:18:18;;;;;;;;;;;16.50;99.90;;;;;;5047910;28;19932;-68
2023/05/13 08:20:43;;;;;;;;;;;16.60;99.90;;;;;;5040864;28;19921;-67
2023/05/13 08:23:09;;;;;;;;;;;16.70;99.90;;;;;;5044879;28;19921;-68
2023/05/13 08:25:35;;;;;;;;;;;16.80;99.90;;;;;;5048827;28;20386;-67
2023/05/13 08:28:01;;;;;;;;;;;16.90;99.90;;;;;;5048288;28;19921;-65
2023/05/13 08:30:26;;;;;;;;;;;17.00;99.90;;;;;;5035683;28;19925;-68
2023/05/13 08:32:52;;;;;;;;;;;17.10;99.90;;;;;;5049836;28;20309;-67
2023/05/13 08:35:17;;;;;;;;;;;17.10;99.90;;;;;;5049773;28;20002;-68
2023/05/13 08:37:43;;;;;;;;;;;17.20;99.90;;;;;;5030054;28;19932;-66
2023/05/13 08:40:09;;;;;;;;;;;17.30;99.90;;;;;;5034572;28;19927;-66
2023/05/13 08:42:37;;;;;;;;;;;17.40;99.90;;;;;;5034857;28;19927;-66
2023/05/13 08:45:06;;;;;;;;;;;17.40;99.90;;;;;;5040112;28;19936;-66
2023/05/13 08:47:38;;;;;;;;;;;17.50;99.90;;;;;;5039920;28;19971;-66
2023/05/13 08:50:04;;;;;;;;;;;17.60;99.90;;;;;;5038545;28;20338;-66
2023/05/13 08:52:30;;;;;;;;;;;17.60;99.90;;;;;;5035394;28;19932;-66
2023/05/13 08:54:57;;;;;;;;;;;17.80;99.90;;;;;;5041669;28;19921;-66
2023/05/13 08:57:23;;;;;;;;;;;17.80;99.90;;;;;;5038225;28;19964;-66
2023/05/13 08:59:48;;;;;;;;;;;17.90;99.90;;;;;;5032317;28;19967;-66
2023/05/13 09:02:14;;;;;;;;;;;18.00;99.90;;;;;;5043418;28;19960;-66
2023/05/13 09:04:40;;;;;;;;;;;18.10;99.90;;;;;;5041661;28;19927;-66
2023/05/13 09:07:06;;;;;;;;;;;18.30;99.90;;;;;;5034046;28;19921;-66
2023/05/13 09:09:32;;;;;;;;;;;18.30;99.90;;;;;;5033743;28;19932;-66
2023/05/13 09:11:57;;;;;;;;;;;18.50;99.90;;;;;;5046867;28;20008;-66
2023/05/13 09:14:26;;;;;;;;;;;18.50;99.90;;;;;;5049487;28;19924;-66
2023/05/13 09:16:54;;;;;;;;;;;18.60;99.90;;;;;;5050406;28;19921;-66
2023/05/13 09:19:22;;;;;;;;;;;18.70;99.90;;;;;;5053387;28;19920;-66
2023/05/13 09:21:47;;;;;;;;;;;18.80;99.90;;;;;;5038472;28;19921;-66
2023/05/13 09:24:17;;;;;;;;;;;19.00;99.90;;;;;;5039282;28;20511;-66
2023/05/13 09:26:43;;;;;;;;;;;18.90;99.90;;;;;;5043827;28;20500;-67
2023/05/13 09:29:18;;;;;;;;;;;19.10;99.90;;;;;;5042933;28;19931;-67
2023/05/13 09:31:48;;;;;;;;;;;19.20;99.90;;;;;;5059928;28;19925;-66
2023/05/13 09:34:22;;;;;;;;;;;19.20;99.90;;;;;;5050693;28;19920;-69
2023/05/13 09:36:53;;;;;;;;;;;19.30;99.90;;;;;;5042663;28;19928;-68
2023/05/13 09:39:19;;;;;;;;;;;19.50;99.90;;;;;;5036638;28;19932;-66
2023/05/13 09:41:44;;;;;;;;;;;19.40;99.90;;;;;;5047070;28;19925;-67
2023/05/13 09:44:11;;;;;;;;;;;19.50;99.90;;;;;;5037452;28;19927;-66
2023/05/13 09:46:37;;;;;;;;;;;19.50;99.90;;;;;;5030982;28;19955;-66
2023/05/13 09:49:02;;;;;;;;;;;19.50;99.90;;;;;;5040493;28;20375;-67
2023/05/13 09:51:30;;;;;;;;;;;19.60;99.90;;;;;;5036511;28;20046;-66
2023/05/13 09:54:05;;;;;;;;;;;19.70;99.90;;;;;;5039419;28;19925;-66
2023/05/13 09:56:31;;;;;;;;;;;19.70;99.90;;;;;;5050893;28;19981;-68
2023/05/13 09:58:57;;;;;;;;;;;19.90;99.20;;;;;;5038565;28;20003;-69
2023/05/13 10:01:24;;;;;;;;;;;20.00;99.90;;;;;;5044571;28;19925;-67
2023/05/13 10:03:50;;;;;;;;;;;20.00;99.90;;;;;;5035297;28;19960;-67
2023/05/13 10:06:16;;;;;;;;;;;20.00;99.90;;;;;;5046027;28;19925;-67
2023/05/13 10:08:44;;;;;;;;;;;20.20;99.90;;;;;;5050656;28;19920;-66
2023/05/13 10:11:10;;;;;;;;;;;20.30;98.50;;;;;;5037611;28;19928;-67
2023/05/13 10:13:37;;;;;;;;;;;20.30;98.80;;;;;;5033001;28;19928;-67
2023/05/13 10:16:02;;;;;;;;;;;20.30;99.90;;;;;;5036524;28;19928;-68
2023/05/13 10:18:29;;;;;;;;;;;20.40;98.00;;;;;;5052126;28;19925;-67
2023/05/13 10:20:55;;;;;;;;;;;20.30;99.90;;;;;;5044989;28;19927;-67
2023/05/13 10:23:22;;;;;;;;;;;20.40;99.90;;;;;;5052822;28;19927;-68
2023/05/13 10:25:49;;;;;;;;;;;20.50;99.90;;;;;;5038338;28;19956;-69
2023/05/13 10:28:17;;;;;;;;;;;20.60;97.80;;;;;;5039070;28;20489;-68
2023/05/13 10:30:43;;;;;;;;;;;20.60;97.50;;;;;;5050942;28;19920;-67
2023/05/13 10:33:09;;;;;;;;;;;20.70;97.60;;;;;;5045794;28;19925;-67
2023/05/13 10:35:41;;;;;;;;;;;20.80;98.30;;;;;;5048371;28;19927;-67
2023/05/13 10:38:09;;;;;;;;;;;20.80;98.50;;;;;;5069370;28;20397;-66
2023/05/13 10:40:43;;;;;;;;;;;20.80;97.80;;;;;;5052904;28;19921;-71
2023/05/13 10:43:19;;;;;;;;;;;20.90;99.90;;;;;;5033854;28;20004;-66
2023/05/13 10:45:49;;;;;;;;;;;20.90;98.00;;;;;;5042962;28;19921;-67
2023/05/13 10:48:15;;;;;;;;;;;20.90;98.90;;;;;;5052735;28;19987;-67
2023/05/13 10:51:00;;;;;;;;;;;20.90;96.30;;;;;;5041333;28;20547;-67
2023/05/13 10:53:35;;;;;;;;;;;21.00;97.10;;;;;;5049347;28;20397;-66
2023/05/13 10:56:01;;;;;;;;;;;21.20;97.80;;;;;;5032366;28;19928;-67
2023/05/13 10:58:35;;;;;;;;;;;21.20;96.90;;;;;;5033558;28;19921;-67
2023/05/13 11:01:16;;;;;;;;;;;21.40;96.10;;;;;;5026663;28;19921;-69
2023/05/13 11:03:50;;;;;;;;;;;21.50;96.30;;;;;;5041789;28;19924;-66
2023/05/13 11:06:16;;;;;;;;;;;21.40;97.30;;;;;;5038824;28;19929;-67
2023/05/13 11:08:43;;;;;;;;;;;21.50;96.60;;;;;;5034667;28;19921;-69
2023/05/13 11:11:21;;;;;;;;;;;21.50;96.00;;;;;;5044006;28;20012;-68
2023/05/13 11:13:53;;;;;;;;;;;21.40;95.60;;;;;;5068171;28;20306;-67
2023/05/13 11:16:19;;;;;;;;;;;21.60;96.10;;;;;;5047842;28;19924;-68
2023/05/13 11:18:45;;;;;;;;;;;21.70;94.70;;;;;;5039142;28;20502;-68
2023/05/13 11:21:10;;;;;;;;;;;21.70;96.00;;;;;;5052084;28;19921;-68
2023/05/13 11:23:54;;;;;;;;;;;22.00;97.10;;;;;;5042453;28;19928;-68
2023/05/13 11:26:20;;;;;;;;;;;22.20;96.30;;;;;;5052674;28;19925;-68
2023/05/13 11:29:02;;;;;;;;;;;22.20;95.50;;;;;;5046066;28;19921;-68
2023/05/13 11:31:40;;;;;;;;;;;22.20;96.50;;;;;;5035676;28;20339;-68
2023/05/13 11:34:09;;;;;;;;;;;22.30;95.60;;;;;;5044712;28;19925;-68
2023/05/13 11:36:36;;;;;;;;;;;22.40;95.40;;;;;;5049335;28;19926;-68
2023/05/13 11:39:05;;;;;;;;;;;22.60;93.40;;;;;;5047125;28;19921;-68
2023/05/13 11:41:32;;;;;;;;;;;22.60;93.90;;;;;;5039130;28;20275;-68
2023/05/13 11:43:58;;;;;;;;;;;22.50;93.40;;;;;;5048413;28;19921;-68
2023/05/13 11:46:24;;;;;;;;;;;22.70;93.50;;;;;;5049214;28;20276;-68
2023/05/13 11:48:50;;;;;;;;;;;22.70;92.40;;;;;;5051934;28;20043;-68
2023/05/13 11:51:19;;;;;;;;;;;22.70;93.60;;;;;;5058606;28;20011;-68
2023/05/13 11:53:44;;;;;;;;;;;22.80;92.30;;;;;;5036466;28;19975;-69
2023/05/13 11:56:11;;;;;;;;;;;22.80;91.80;;;;;;5043706;28;19972;-69
2023/05/13 11:58:37;;;;;;;;;;;23.00;91.20;;;;;;5041946;28;19968;-67
2023/05/13 12:01:02;;;;;;;;;;;23.00;91.30;;;;;;5050920;28;19964;-69
2023/05/13 12:03:28;;;;;;;;;;;23.10;90.60;;;;;;5049675;28;20090;-68
2023/05/13 12:06:00;;;;;;;;;;;22.90;88.40;;;;;;5039792;28;19921;-68
2023/05/13 12:08:25;;;;;;;;;;;22.40;90.00;;;;;;5044784;28;20291;-66
2023/05/13 12:10:51;;;;;;;;;;;22.60;90.60;;;;;;5049823;28;19928;-67
2023/05/13 12:13:17;;;;;;;;;;;22.80;90.70;;;;;;5050426;28;19960;-67
2023/05/13 12:15:43;;;;;;;;;;;23.00;90.60;;;;;;5049317;28;19920;-67
2023/05/13 12:18:08;;;;;;;;;;;23.20;90.10;;;;;;5039934;28;20055;-67
2023/05/13 12:20:34;;;;;;;;;;;23.50;90.20;;;;;;5047142;28;19920;-67
2023/05/13 12:23:00;;;;;;;;;;;23.80;90.40;;;;;;5042563;28;19927;-67
2023/05/13 12:25:35;;;;;;;;;;;23.60;89.70;;;;;;5041113;28;20038;-67
2023/05/13 12:28:09;;;;;;;;;;;22.90;90.40;;;;;;5045344;28;19975;-67
2023/05/13 12:30:36;;;;;;;;;;;22.50;91.60;;;;;;5040798;28;20011;-66
2023/05/13 12:33:03;;;;;;;;;;;22.70;91.20;;;;;;5044377;28;19955;-67
2023/05/13 12:35:29;;;;;;;;;;;23.00;91.00;;;;;;5047178;28;19947;-67
2023/05/13 12:37:59;;;;;;;;;;;23.30;87.50;;;;;;5031378;28;20650;-66
2023/05/13 12:40:25;;;;;;;;;;;23.70;91.60;;;;;;5031540;28;20307;-66
2023/05/13 12:42:51;;;;;;;;;;;23.80;89.40;;;;;;5049621;28;20337;-66
2023/05/13 12:45:16;;;;;;;;;;;23.20;87.00;;;;;;5051948;28;19973;-66
2023/05/13 12:47:48;;;;;;;;;;;23.00;89.70;;;;;;5039547;28;19928;-66
2023/05/13 12:50:14;;;;;;;;;;;23.10;88.10;;;;;;5037462;28;19999;-66
2023/05/13 12:52:40;;;;;;;;;;;23.30;86.50;;;;;;5039232;28;19929;-67
2023/05/13 12:55:06;;;;;;;;;;;23.50;87.40;;;;;;5048739;28;19928;-66
2023/05/13 12:57:31;;;;;;;;;;;23.80;85.20;;;;;;5055469;28;19928;-66
2023/05/13 12:59:57;;;;;;;;;;;23.90;87.60;;;;;;5055676;28;19920;-67
2023/05/13 13:02:22;;;;;;;;;;;24.10;90.80;;;;;;5046787;28;20282;-67
2023/05/13 13:04:48;;;;;;;;;;;24.30;86.60;;;;;;5038816;28;19971;-67
2023/05/13 13:07:13;;;;;;;;;;;24.50;89.30;;;;;;5044578;28;20458;-67
2023/05/13 13:09:39;;;;;;;;;;;24.50;81.40;;;;;;5046830;28;19925;-66
2023/05/13 13:12:04;;;;;;;;;;;24.50;83.60;;;;;;5050468;28;20275;-66
2023/05/13 13:14:30;;;;;;;;;;;24.80;81.50;;;;;;5037834;28;19999;-66
2023/05/13 13:16:55;;;;;;;;;;;24.70;79.80;;;;;;5038842;28;20468;-67
2023/05/13 13:19:21;;;;;;;;;;;24.30;81.50;;;;;;5026752;28;20383;-66
2023/05/13 13:21:46;;;;;;;;;;;23.60;82.20;;;;;;5035992;28;19927;-66
2023/05/13 13:24:12;;;;;;;;;;;23.90;83.70;;;;;;5032875;28;19928;-66
2023/05/13 13:26:37;;;;;;;;;;;24.10;78.10;;;;;;5040536;28;19967;-66
2023/05/13 13:29:06;;;;;;;;;;;24.50;79.90;;;;;;5037217;28;19928;-67
2023/05/13 13:31:31;;;;;;;;;;;24.70;85.00;;;;;;5036746;28;20321;-67
2023/05/13 13:34:02;;;;;;;;;;;24.50;77.60;;;;;;5032394;28;19924;-67
2023/05/13 13:36:28;;;;;;;;;;;24.60;85.50;;;;;;5035690;28;20096;-67
2023/05/13 13:38:54;;;;;;;;;;;24.80;76.20;;;;;;5037075;28;20370;-67
2023/05/13 13:41:24;;;;;;;;;;;25.00;81.40;;;;;;5035457;28;19929;-67
2023/05/13 13:43:50;;;;;;;;;;;24.90;73.60;;;;;;5023634;28;19983;-67
2023/05/13 13:46:15;;;;;;;;;;;24.90;77.20;;;;;;5036079;28;19925;-68
2023/05/13 13:48:41;;;;;;;;;;;24.70;77.40;;;;;;5033039;28;19924;-68
2023/05/13 13:51:06;;;;;;;;;;;24.30;75.90;;;;;;5052179;28;19925;-69
2023/05/13 13:53:32;;;;;;;;;;;24.30;77.30;;;;;;5046253;28;19925;-69
2023/05/13 13:55:57;;;;;;;;;;;24.40;74.50;;;;;;5050015;28;20337;-68
2023/05/13 13:58:23;;;;;;;;;;;24.80;77.50;;;;;;5052379;28;19927;-68
2023/05/13 14:00:48;;;;;;;;;;;25.00;78.70;;;;;;5041521;28;19929;-68
2023/05/13 14:03:14;;;;;;;;;;;25.20;74.30;;;;;;5031136;28;20016;-68
2023/05/13 14:05:39;;;;;;;;;;;25.50;75.20;;;;;;5050586;28;19931;-69
2023/05/13 14:08:05;;;;;;;;;;;25.60;74.10;;;;;;5051401;28;19921;-69
2023/05/13 14:10:30;;;;;;;;;;;25.50;73.80;;;;;;5038161;28;20023;-68
2023/05/13 14:12:56;;;;;;;;;;;25.50;74.70;;;;;;5045244;28;19924;-68